Time;durP1;ratioP1;P1;durP2;ratioP2;P2;SDS_P1;SDS_P2;PMS_P1;PMS_P2;Temp;Humidity;BMP_temperature;BMP_pressure;BME280_temperature;BME280_humidity;BME280_pressure;Samples;Min_cycle;Max_cycle;Signal;HPM_P1;HPM_P2
2022/11/02 00:00:24;;;;;;;2.13;1.75;;;;;;;;;;5065079;28;20076;-72
2022/11/02 00:02:50;;;;;;;1.55;1.48;;;;;;;;;;5051929;28;20033;-72
2022/11/02 00:05:22;;;;;;;2.05;1.95;;;;;;;;;;5051691;28;20083;-72
2022/11/02 00:07:48;;;;;;;0.95;0.95;;;;;;;;;;5051883;28;20491;-72
2022/11/02 00:10:14;;;;;;;0.93;0.93;;;8.50;99.90;;;;;;5051867;28;20033;-72
2022/11/02 00:12:40;;;;;;;0.80;0.80;;;;;;;;;;5051468;28;20020;-72
2022/11/02 00:15:06;;;;;;;1.00;1.00;;;;;;;;;;5064709;28;20032;-72
2022/11/02 00:17:32;;;;;;;0.47;0.47;;;;;;;;;;5071072;28;20509;-73
2022/11/02 00:19:59;;;;;;;1.25;1.20;;;;;;;;;;5071251;28;20424;-72
2022/11/02 00:22:25;;;;;;;0.50;0.50;;;;;;;;;;5052204;28;20024;-72
2022/11/02 00:24:51;;;;;;;0.47;0.47;;;;;;;;;;5051510;28;20064;-71
2022/11/02 00:27:17;;;;;;;8.98;5.15;;;;;;;;;;5051112;28;20113;-73
2022/11/02 00:29:43;;;;;;;1.92;1.63;;;;;;;;;;5059097;28;20446;-73
2022/11/02 00:32:09;;;;;;;0.67;0.67;;;;;;;;;;5071540;28;20083;-71
2022/11/02 00:34:35;;;;;;;1.13;1.13;;;;;;;;;;5071047;28;20035;-72
2022/11/02 00:37:01;;;;;;;0.93;0.93;;;;;;;;;;5055371;28;20298;-72
2022/11/02 00:39:27;;;;;;;0.75;0.75;;;8.80;99.90;;;;;;5051564;28;20033;-72
2022/11/02 00:41:53;;;;;;;1.90;1.80;;;;;;;;;;5051078;28;20391;-72
2022/11/02 00:44:19;;;;;;;0.90;0.90;;;;;;;;;;5053693;28;20032;-72
2022/11/02 00:46:45;;;;;;;1.50;1.33;;;;;;;;;;5070816;28;20016;-72
2022/11/02 00:49:10;;;;;;;1.30;1.23;;;8.80;99.90;;;;;;5070924;28;20036;-72
2022/11/02 00:51:36;;;;;;;0.40;0.40;;;9.00;99.90;;;;;;5065849;28;20056;-71
2022/11/02 00:54:02;;;;;;;1.73;1.63;;;;;;;;;;5052461;28;20033;-72
2022/11/02 00:56:28;;;;;;;3.63;2.87;;;;;;;;;;5051066;28;20052;-71
2022/11/02 00:58:54;;;;;;;1.07;0.90;;;;;;;;;;5050790;28;20557;-71
2022/11/02 01:01:20;;;;;;;1.70;1.60;;;;;;;;;;5084114;28;20273;-71
2022/11/02 01:03:46;;;;;;;8.80;2.50;;;;;;;;;;5090938;28;20028;-72
2022/11/02 01:06:14;;;;;;;0.30;0.30;;;8.60;99.90;;;;;;5086489;28;20349;-71
2022/11/02 01:08:40;;;;;;;1.77;1.67;;;;;;;;;;5070792;28;20428;-72
2022/11/02 01:11:14;;;;;;;1.17;1.17;;;8.60;99.90;;;;;;5070575;28;20047;-72
2022/11/02 01:13:40;;;;;;;1.33;1.10;;;;;;;;;;5070609;28;20400;-72
2022/11/02 01:16:07;;;;;;;0.88;0.85;;;8.40;99.90;;;;;;5083950;28;20024;-72
2022/11/02 01:18:33;;;;;;;1.35;1.20;;;;;;;;;;5090834;28;20537;-72
2022/11/02 01:20:59;;;;;;;1.53;1.37;;;8.80;99.90;;;;;;5090656;28;20070;-72
2022/11/02 01:23:25;;;;;;;1.33;1.27;;;;;;;;;;5070829;28;20036;-72
2022/11/02 01:25:51;;;;;;;2.40;2.30;;;;;;;;;;5071010;28;20044;-72
2022/11/02 01:28:17;;;;;;;0.65;0.65;;;;;;;;;;5070104;28;20617;-73
2022/11/02 01:30:43;;;;;;;1.42;1.40;;;;;;;;;;5078494;28;20042;-71
2022/11/02 01:33:09;;;;;;;0.40;0.40;;;;;;;;;;5090441;28;20471;-71
2022/11/02 01:35:38;;;;;;;4.60;2.63;;;;;;;;;;5070478;28;20027;-72
2022/11/02 01:38:04;;;;;;;2.97;1.77;;;8.60;99.90;;;;;;5074546;28;20112;-72
2022/11/02 01:40:38;;;;;;;2.07;1.33;;;8.40;99.90;;;;;;5070618;28;20111;-72
2022/11/02 01:43:23;;;;;;;0.68;0.68;;;;;;;;;;5078203;28;20028;-72
2022/11/02 01:45:51;;;;;;;1.02;1.02;;;;;;;;;;5090814;28;20032;-72
2022/11/02 01:48:20;;;;;;;0.40;0.40;;;8.50;99.90;;;;;;5090521;28;20661;-72
2022/11/02 01:50:46;;;;;;;1.02;1.02;;;8.30;99.90;;;;;;5094381;28;20056;-72
2022/11/02 01:53:12;;;;;;;0.50;0.50;;;;;;;;;;5079445;28;20478;-71
2022/11/02 01:55:39;;;;;;;0.60;0.60;;;;;;;;;;5074458;28;20034;-72
2022/11/02 01:58:08;;;;;;;4.75;3.40;;;;;;;;;;5056328;28;20119;-72
2022/11/02 02:00:34;;;;;;;0.65;0.65;;;;;;;;;;5075056;28;20044;-72
2022/11/02 02:03:02;;;;;;;1.77;1.67;;;;;;;;;;5072471;28;20104;-73
2022/11/02 02:05:29;;;;;;;1.17;1.17;;;;;;;;;;5073709;28;20041;-72
2022/11/02 02:07:55;;;;;;;1.90;1.77;;;;;;;;;;5065561;28;20035;-71
2022/11/02 02:10:21;;;;;;;2.85;2.50;;;;;;;;;;5094531;28;20020;-72
2022/11/02 02:12:47;;;;;;;0.93;0.93;;;;;;;;;;5094069;28;20028;-71
2022/11/02 02:15:13;;;;;;;0.77;0.77;;;;;;;;;;5094303;28;20379;-72
2022/11/02 02:17:46;;;;;;;0.47;0.47;;;;;;;;;;5075172;28;20040;-72
2022/11/02 02:20:31;;;;;;;0.60;0.60;;;;;;;;;;5074117;28;20352;-73
2022/11/02 02:23:24;;;;;;;0.57;0.57;;;8.20;99.90;;;;;;5056741;28;20017;-72
2022/11/02 02:25:58;;;;;;;1.85;1.75;;;;;;;;;;5073944;28;20508;-73
2022/11/02 02:28:33;;;;;;;0.40;0.40;;;;;;;;;;5073158;28;20523;-72
2022/11/02 02:30:59;;;;;;;0.60;0.60;;;;;;;;;;5075535;28;20119;-72
2022/11/02 02:33:34;;;;;;;0.50;0.50;;;;;;;;;;5093768;28;20032;-73
2022/11/02 02:36:06;;;;;;;1.48;1.30;;;;;;;;;;5094058;28;20127;-72
2022/11/02 02:38:35;;;;;;;1.65;1.13;;;;;;;;;;5082940;28;20028;-73
2022/11/02 02:41:04;;;;;;;3.08;1.95;;;;;;;;;;5074888;28;20055;-72
2022/11/02 02:43:37;;;;;;;2.00;1.55;;;;;;;;;;5055517;28;20021;-72
2022/11/02 02:46:23;;;;;;;3.85;2.17;;;;;;;;;;5073695;28;20036;-72
2022/11/02 02:48:51;;;;;;;2.38;1.27;;;8.20;99.90;;;;;;5093177;28;20044;-71
2022/11/02 02:51:36;;;;;;;0.60;0.60;;;8.30;99.90;;;;;;5093419;28;20119;-72
2022/11/02 02:54:22;;;;;;;0.70;0.70;;;8.20;99.90;;;;;;5061604;28;20032;-73
2022/11/02 02:56:50;;;;;;;0.60;0.60;;;;;;;;;;5073080;28;20017;-72
2022/11/02 02:59:25;;;;;;;1.30;1.25;;;;;;;;;;5072888;28;20040;-72
2022/11/02 03:01:51;;;;;;;1.65;1.30;;;;;;;;;;5055531;28;20025;-72
2022/11/02 03:04:17;;;;;;;0.93;0.93;;;;;;;;;;5072403;28;20119;-72
2022/11/02 03:06:46;;;;;;;0.60;0.60;;;;;;;;;;5072781;28;20140;-72
2022/11/02 03:09:12;;;;;;;1.10;1.10;;;;;;;;;;5066477;28;20029;-72
2022/11/02 03:11:45;;;;;;;2.20;2.00;;;8.70;99.90;;;;;;5093071;28;20026;-73
2022/11/02 03:14:42;;;;;;;0.73;0.70;;;8.20;99.90;;;;;;5074805;28;20351;-72
2022/11/02 03:17:11;;;;;;;0.85;0.85;;;;;;;;;;5087004;28;20472;-72
2022/11/02 03:20:01;;;;;;;1.77;1.67;;;8.30;99.90;;;;;;5072617;28;20504;-72
2022/11/02 03:22:33;;;;;;;0.95;0.95;;;;;;;;;;5072701;28;20167;-72
2022/11/02 03:25:19;;;;;;;1.75;1.65;;;8.30;99.90;;;;;;5088219;28;20062;-73
2022/11/02 03:27:50;;;;;;;0.30;0.30;;;;;;;;;;5058505;28;20055;-71
2022/11/02 03:30:21;;;;;;;1.00;1.00;;;8.50;99.90;;;;;;5072773;28;20025;-73
2022/11/02 03:33:04;;;;;;;1.05;1.00;;;;;;;;;;5055300;28;20062;-72
2022/11/02 03:36:18;;;;;;;1.35;1.27;;;8.00;99.90;;;;;;5072486;28;20028;-72
2022/11/02 03:39:01;;;;;;;0.40;0.40;;;;;;;;;;5047461;28;20503;-71
2022/11/02 03:41:27;;;;;;;1.35;1.25;;;;;;;;;;5092589;28;20040;-71
2022/11/02 03:43:58;;;;;;;0.55;0.55;;;;;;;;;;5092271;28;20420;-72
2022/11/02 03:46:24;;;;;;;0.65;0.65;;;8.00;99.90;;;;;;5092167;28;20032;-72
2022/11/02 03:48:50;;;;;;;;;;;;;;;;;;5076297;28;20056;-72
2022/11/02 03:51:18;;;;;;;0.60;0.60;;;;;;;;;;5071888;28;19936;-72
2022/11/02 03:53:50;;;;;;;1.02;1.00;;;7.90;99.90;;;;;;5073825;28;20130;-72
2022/11/02 03:56:45;;;;;;;0.50;0.50;;;;;;;;;;5091848;28;20432;-72
2022/11/02 03:59:14;;;;;;;0.73;0.73;;;;;;;;;;5052668;28;20063;-72
2022/11/02 04:01:44;;;;;;;1.50;1.40;;;;;;;;;;5091856;28;20042;-71
2022/11/02 04:04:11;;;;;;;0.98;0.98;;;7.90;99.90;;;;;;5074814;28;20036;-73
2022/11/02 04:06:37;;;;;;;2.30;2.15;;;;;;;;;;5071389;28;20028;-72
2022/11/02 04:09:04;;;;;;;1.95;1.85;;;7.90;99.90;;;;;;5074296;28;20036;-72
2022/11/02 04:19:44;;;;;;;0.63;0.63;;;;;;;;;;5091035;28;20109;-71
2022/11/02 04:27:39;;;;;;;0.57;0.57;;;;;;;;;;5070579;28;20538;-72
2022/11/02 04:30:05;;;;;;;0.43;0.43;;;;;;;;;;5053225;28;20055;-72
2022/11/02 04:35:29;;;;;;;1.70;1.60;;;;;;;;;;5051546;28;20123;-71
2022/11/02 04:40:39;;;;;;;0.77;0.77;;;;;;;;;;5076782;28;20046;-71
2022/11/02 04:43:05;;;;;;;2.20;2.05;;;;;;;;;;5091397;28;20039;-72
2022/11/02 04:45:31;;;;;;;2.05;1.95;;;;;;;;;;5091310;28;20076;-72
2022/11/02 04:48:15;;;;;;;4.83;2.80;;;;;;;;;;5090168;28;20436;-71
2022/11/02 04:50:41;;;;;;;0.65;0.65;;;;;;;;;;5071017;28;20422;-73
2022/11/02 04:53:08;;;;;;;1.20;1.10;;;;;;;;;;5070788;28;20017;-71
2022/11/02 04:55:34;;;;;;;0.68;0.68;;;;;;;;;;5071969;28;20362;-72
2022/11/02 04:58:00;;;;;;;0.60;0.60;;;;;;;;;;5070787;28;20031;-72
2022/11/02 05:00:26;;;;;;;0.50;0.50;;;;;;;;;;5071002;28;20040;-73
2022/11/02 05:02:52;;;;;;;2.80;1.90;;;7.20;99.90;;;;;;5070587;28;20395;-72
2022/11/02 05:05:18;;;;;;;1.70;1.43;;;;;;;;;;5088218;28;20107;-72
2022/11/02 05:07:44;;;;;;;0.85;0.85;;;;;;;;;;5090862;28;20380;-72
2022/11/02 05:10:10;;;;;;;0.63;0.63;;;;;;;;;;5089123;28;20145;-72
2022/11/02 05:12:36;;;;;;;0.50;0.50;;;;;;;;;;5090571;28;20115;-72
2022/11/02 05:15:03;;;;;;;0.40;0.40;;;;;;;;;;5090779;28;20264;-71
2022/11/02 05:17:29;;;;;;;0.73;0.73;;;;;;;;;;5090575;28;20348;-72
2022/11/02 05:19:55;;;;;;;0.68;0.68;;;;;;;;;;5059072;28;20032;-71
2022/11/02 05:22:21;;;;;;;1.30;1.20;;;7.90;99.90;;;;;;5070331;28;20024;-73
2022/11/02 05:24:47;;;;;;;0.50;0.50;;;7.60;99.90;;;;;;5070335;28;20037;-73
2022/11/02 05:27:13;;;;;;;2.53;2.23;;;;;;;;;;5070091;28;20075;-72
2022/11/02 05:29:39;;;;;;;0.88;0.88;;;;;;;;;;5052230;28;20078;-72
2022/11/02 05:32:05;;;;;;;4.47;2.97;;;;;;;;;;5070287;28;20033;-72
2022/11/02 05:34:31;;;;;;;0.80;0.80;;;;;;;;;;5059617;28;20347;-72
2022/11/02 05:36:57;;;;;;;1.80;1.70;;;;;;;;;;5090541;28;20019;-72
2022/11/02 05:39:23;;;;;;;1.00;1.00;;;;;;;;;;5090640;28;20271;-72
2022/11/02 05:41:49;;;;;;;2.42;2.22;;;7.60;99.90;;;;;;5075303;28;20054;-72
2022/11/02 05:44:15;;;;;;;0.73;0.73;;;;;;;;;;5070152;28;20041;-73
2022/11/02 05:46:42;;;;;;;8.40;3.10;;;7.50;99.90;;;;;;5052200;28;20120;-72
2022/11/02 05:49:08;;;;;;;2.75;2.55;;;;;;;;;;5072486;28;20364;-72
2022/11/02 05:51:34;;;;;;;0.73;0.73;;;8.20;99.90;;;;;;5090372;28;20055;-71
2022/11/02 05:53:59;;;;;;;5.93;2.10;;;;;;;;;;5090370;28;20028;-71
2022/11/02 05:56:25;;;;;;;1.33;1.33;;;9.40;99.90;;;;;;5080892;28;20029;-72
2022/11/02 05:58:53;;;;;;;1.70;1.43;;;;;;;;;;5070092;28;20036;-72
2022/11/02 06:01:19;;;;;;;0.77;0.77;;;;;;;;;;5051770;28;20299;-70
2022/11/02 06:03:45;;;;;;;3.95;2.72;;;;;;;;;;5051567;28;20034;-68
2022/11/02 06:06:11;;;;;;;1.37;1.33;;;;;;;;;;5087120;28;20032;-69
2022/11/02 06:08:37;;;;;;;3.15;1.35;;;12.30;99.90;;;;;;5089327;28;20032;-68
2022/11/02 06:11:11;;;;;;;0.75;0.75;;;12.80;98.90;;;;;;5089062;28;20032;-68
2022/11/02 06:13:37;;;;;;;1.20;1.20;;;;;;;;;;5088783;28;20434;-68
2022/11/02 06:16:05;;;;;;;1.50;1.40;;;13.60;99.90;;;;;;5090268;28;20033;-69
2022/11/02 06:18:31;;;;;;;3.60;2.30;;;;;;;;;;5080271;28;20056;-68
2022/11/02 06:20:57;;;;;;;5.03;2.10;;;;;;;;;;5070150;28;20040;-69
2022/11/02 06:23:24;;;;;;;1.23;1.20;;;13.00;99.90;;;;;;5070523;28;20056;-68
2022/11/02 06:25:54;;;;;;;1.02;1.02;;;12.70;97.90;;;;;;5070351;28;20045;-69
2022/11/02 06:28:20;;;;;;;1.55;1.48;;;;;;;;;;5089526;28;20044;-68
2022/11/02 06:30:48;;;;;;;2.83;2.63;;;;;;;;;;5089533;28;20032;-68
2022/11/02 06:33:13;;;;;;;1.63;1.52;;;;;;;;;;5089909;28;20028;-68
2022/11/02 06:35:39;;;;;;;1.97;1.87;;;;;;;;;;5082289;28;20048;-69
2022/11/02 06:38:05;;;;;;;2.67;1.17;;;;;;;;;;5073449;28;20467;-69
2022/11/02 06:40:32;;;;;;;1.80;1.70;;;;;;;;;;5073313;28;20272;-67
2022/11/02 06:42:58;;;;;;;0.80;0.80;;;;;;;;;;5089687;28;20032;-68
2022/11/02 06:45:24;;;;;;;3.07;2.83;;;12.30;99.90;;;;;;5093648;28;20044;-69
2022/11/02 06:47:50;;;;;;;0.85;0.85;;;12.60;99.90;;;;;;5075052;28;20751;-69
2022/11/02 06:50:16;;;;;;;1.60;1.50;;;12.70;99.90;;;;;;5091506;28;20025;-69
2022/11/02 06:52:46;;;;;;;5.68;2.00;;;;;;;;;;5093336;28;20027;-69
2022/11/02 06:55:13;;;;;;;2.60;1.25;;;12.40;99.90;;;;;;5093464;28;20537;-69
2022/11/02 06:57:41;;;;;;;0.90;0.90;;;12.40;99.90;;;;;;5081331;28;20799;-68
2022/11/02 07:00:12;;;;;;;1.85;1.75;;;12.30;99.90;;;;;;5072875;28;20040;-68
2022/11/02 07:02:39;;;;;;;2.83;2.50;;;;;;;;;;5054756;28;20033;-69
2022/11/02 07:05:05;;;;;;;2.08;1.95;;;12.40;99.90;;;;;;5072921;28;20041;-69
2022/11/02 07:07:31;;;;;;;1.95;1.85;;;;;;;;;;5074373;28;20040;-68
2022/11/02 07:09:57;;;;;;;1.35;1.20;;;;;;;;;;5092821;28;20092;-69
2022/11/02 07:12:23;;;;;;;1.70;1.60;;;;;;;;;;5089864;28;20416;-69
2022/11/02 07:14:49;;;;;;;0.97;0.97;;;;;;;;;;5091182;28;20368;-69
2022/11/02 07:17:15;;;;;;;0.87;0.87;;;;;;;;;;5091099;28;20032;-70
2022/11/02 07:19:41;;;;;;;0.90;0.90;;;;;;;;;;5093136;28;20039;-70
2022/11/02 07:22:07;;;;;;;2.03;1.67;;;;;;;;;;5092250;28;20608;-69
2022/11/02 07:24:33;;;;;;;1.37;1.30;;;;;;;;;;5090508;28;20140;-70
2022/11/02 07:26:59;;;;;;;3.37;2.93;;;;;;;;;;5090397;28;20044;-69
2022/11/02 07:29:25;;;;;;;2.53;2.33;;;;;;;;;;5071833;28;20096;-68
2022/11/02 07:31:51;;;;;;;1.67;1.58;;;;;;;;;;5072216;28;20024;-69
2022/11/02 07:34:17;;;;;;;2.73;2.10;;;;;;;;;;5084526;28;20107;-69
2022/11/02 07:36:43;;;;;;;1.30;1.27;;;;;;;;;;5093161;28;20240;-68
2022/11/02 07:39:09;;;;;;;1.53;1.43;;;;;;;;;;5092751;28;20301;-68
2022/11/02 07:41:35;;;;;;;1.57;1.47;;;;;;;;;;5091516;28;20280;-69
2022/11/02 07:44:01;;;;;;;0.90;0.77;;;;;;;;;;5071989;28;20040;-69
2022/11/02 07:46:27;;;;;;;1.30;1.27;;;;;;;;;;5071897;28;20024;-69
2022/11/02 07:48:53;;;;;;;3.10;2.80;;;;;;;;;;5072439;28;20106;-68
2022/11/02 07:51:19;;;;;;;3.00;2.03;;;13.00;99.90;;;;;;5071482;28;20024;-68
2022/11/02 07:53:45;;;;;;;2.07;1.47;;;;;;;;;;5080150;28;20041;-69
2022/11/02 07:56:11;;;;;;;2.07;1.87;;;;;;;;;;5072274;28;20036;-71
2022/11/02 07:58:37;;;;;;;4.47;3.07;;;;;;;;;;5048679;28;20378;-71
2022/11/02 08:01:03;;;;;;;1.90;1.80;;;;;;;;;;5057738;28;20357;-71
2022/11/02 08:03:29;;;;;;;3.03;2.35;;;;;;;;;;5063859;28;20103;-71
2022/11/02 08:05:55;;;;;;;6.90;3.63;;;;;;;;;;5076670;28;20151;-71
2022/11/02 08:08:22;;;;;;;2.42;2.05;;;;;;;;;;5064534;28;20440;-71
2022/11/02 08:10:48;;;;;;;;;;;;;;;;;;5051913;28;20044;-72
2022/11/02 08:13:15;;;;;;;2.65;2.40;;;;;;;;;;5062119;28;19908;-70
2022/11/02 08:15:41;;;;;;;2.40;2.20;;;;;;;;;;5056138;28;20029;-71
2022/11/02 08:18:15;;;;;;;1.60;1.50;;;;;;;;;;5061333;28;20037;-71
2022/11/02 08:20:41;;;;;;;1.77;1.67;;;;;;;;;;5076874;28;20292;-71
2022/11/02 08:23:08;;;;;;;1.05;1.05;;;;;;;;;;5060584;28;20044;-70
2022/11/02 08:25:34;;;;;;;1.50;1.40;;;;;;;;;;5058641;28;20056;-71
2022/11/02 08:28:01;;;;;;;1.23;1.00;;;;;;;;;;5066201;28;20043;-70
2022/11/02 08:30:28;;;;;;;0.77;0.77;;;;;;;;;;5067171;28;20507;-70
2022/11/02 08:32:54;;;;;;;1.50;1.42;;;;;;;;;;5059431;28;20384;-72
2022/11/02 08:35:20;;;;;;;1.83;1.50;;;;;;;;;;5047565;28;20041;-68
2022/11/02 08:38:14;;;;;;;3.03;2.50;;;;;;;;;;5062585;28;20285;-69
2022/11/02 08:40:40;;;;;;;2.90;2.35;;;;;;;;;;5057779;28;20032;-68
2022/11/02 08:43:08;;;;;;;1.30;1.13;;;14.50;99.90;;;;;;5049080;28;20032;-69
2022/11/02 08:45:35;;;;;;;5.07;2.17;;;;;;;;;;5055321;28;20385;-69
2022/11/02 08:48:01;;;;;;;2.08;1.10;;;;;;;;;;5060376;28;20060;-68
2022/11/02 08:50:27;;;;;;;3.63;1.93;;;;;;;;;;5057020;28;20047;-68
2022/11/02 08:52:53;;;;;;;5.28;3.58;;;;;;;;;;5054133;28;20341;-69
2022/11/02 08:55:19;;;;;;;2.30;2.10;;;;;;;;;;5074347;28;20087;-69
2022/11/02 08:57:49;;;;;;;3.13;2.83;;;;;;;;;;5065740;28;20428;-73
2022/11/02 09:00:16;;;;;;;3.75;1.73;;;;;;;;;;5052325;28;20036;-69
2022/11/02 09:02:42;;;;;;;1.50;1.40;;;;;;;;;;5035772;28;20115;-72
2022/11/02 09:05:09;;;;;;;1.98;1.88;;;;;;;;;;5059076;28;20044;-69
2022/11/02 09:07:35;;;;;;;0.73;0.73;;;;;;;;;;5058699;28;20020;-70
2022/11/02 09:10:01;;;;;;;3.47;2.05;;;;;;;;;;5052344;28;20025;-69
2022/11/02 09:12:27;;;;;;;4.43;2.53;;;;;;;;;;5049159;28;20025;-70
2022/11/02 09:14:53;;;;;;;1.67;1.20;;;;;;;;;;5051675;28;20331;-70
2022/11/02 09:17:19;;;;;;;3.27;2.57;;;;;;;;;;5054481;28;20056;-67
2022/11/02 09:19:45;;;;;;;2.55;2.35;;;;;;;;;;5058012;28;20377;-68
2022/11/02 09:22:11;;;;;;;2.20;2.03;;;;;;;;;;5046846;28;20045;-68
2022/11/02 09:24:37;;;;;;;1.63;1.53;;;;;;;;;;5055407;28;20032;-69
2022/11/02 09:27:03;;;;;;;3.00;1.23;;;;;;;;;;5052701;28;20280;-69
2022/11/02 09:29:30;;;;;;;1.25;1.17;;;;;;;;;;5054628;28;20033;-70
2022/11/02 09:31:56;;;;;;;1.02;1.02;;;;;;;;;;5050224;28;20326;-68
2022/11/02 09:34:22;;;;;;;6.27;2.70;;;;;;;;;;5053560;28;20039;-68
2022/11/02 09:36:48;;;;;;;3.07;2.63;;;;;;;;;;5064713;28;20124;-68
2022/11/02 09:39:14;;;;;;;3.07;2.87;;;;;;;;;;5058422;28;20285;-68
2022/11/02 09:41:47;;;;;;;1.55;1.33;;;;;;;;;;5062002;28;20800;-68
2022/11/02 09:44:17;;;;;;;1.73;1.63;;;;;;;;;;5057745;28;20484;-68
2022/11/02 09:46:45;;;;;;;3.00;2.60;;;;;;;;;;5055249;28;20043;-68
2022/11/02 09:49:13;;;;;;;2.45;2.25;;;;;;;;;;5061517;28;20376;-69
2022/11/02 09:51:49;;;;;;;1.30;1.20;;;;;;;;;;5060022;28;20102;-69
2022/11/02 09:54:18;;;;;;;1.75;1.65;;;;;;;;;;5055359;28;20102;-68
2022/11/02 09:56:45;;;;;;;2.45;2.25;;;14.60;98.50;;;;;;5058224;28;20029;-68
2022/11/02 09:59:16;;;;;;;1.50;1.38;;;;;;;;;;5058042;28;20029;-66
2022/11/02 10:02:16;;;;;;;2.30;2.15;;;14.50;99.90;;;;;;5060453;28;20060;-68
2022/11/02 10:04:42;;;;;;;2.72;2.53;;;;;;;;;;5052047;28;20596;-68
2022/11/02 10:07:11;;;;;;;8.32;3.35;;;;;;;;;;5059684;28;20377;-69
2022/11/02 10:09:45;;;;;;;1.00;1.00;;;;;;;;;;5056687;28;20028;-67
2022/11/02 10:12:36;;;;;;;2.55;2.38;;;14.30;99.90;;;;;;5055783;28;20492;-69
2022/11/02 10:15:08;;;;;;;1.70;1.60;;;;;;;;;;5060848;28;20048;-68
2022/11/02 10:17:36;;;;;;;10.50;8.48;;;;;;;;;;5063081;28;20500;-68
2022/11/02 10:20:07;;;;;;;2.60;2.40;;;;;;;;;;5052635;28;20067;-68
2022/11/02 10:22:36;;;;;;;1.77;1.67;;;;;;;;;;5060375;28;20099;-68
2022/11/02 10:25:05;;;;;;;3.40;2.63;;;;;;;;;;5057125;28;20043;-68
2022/11/02 10:27:36;;;;;;;1.75;1.65;;;15.20;98.90;;;;;;5056720;28;20163;-67
2022/11/02 10:30:21;;;;;;;5.35;2.95;;;;;;;;;;5061884;28;20480;-67
2022/11/02 10:32:50;;;;;;;4.90;3.45;;;15.50;98.20;;;;;;5061840;28;20787;-68
2022/11/02 10:35:22;;;;;;;2.67;2.45;;;;;;;;;;5070830;28;20071;-67
2022/11/02 10:37:51;;;;;;;1.33;1.27;;;;;;;;;;5049677;28;20024;-67
2022/11/02 10:40:20;;;;;;;0.88;0.82;;;;;;;;;;5054741;28;20021;-68
2022/11/02 10:43:12;;;;;;;6.32;3.00;;;;;;;;;;5058222;28;20044;-68
2022/11/02 10:46:04;;;;;;;1.40;1.30;;;15.10;96.90;;;;;;5056982;28;20036;-70
2022/11/02 10:48:44;;;;;;;2.30;2.20;;;;;;;;;;5044842;28;20112;-69
2022/11/02 10:51:14;;;;;;;1.75;1.65;;;;;;;;;;5060869;28;20040;-68
2022/11/02 10:53:42;;;;;;;4.72;1.48;;;15.20;97.90;;;;;;5057773;28;20025;-67
2022/11/02 10:56:11;;;;;;;0.70;0.60;;;;;;;;;;5059408;28;20037;-69
2022/11/02 10:58:43;;;;;;;1.00;1.00;;;15.10;96.80;;;;;;5065894;28;20071;-66
2022/11/02 11:01:10;;;;;;;1.30;1.20;;;15.10;96.80;;;;;;5064077;28;20436;-68
2022/11/02 11:03:53;;;;;;;2.22;2.05;;;;;;;;;;5050023;28;20035;-68
2022/11/02 11:06:20;;;;;;;0.90;0.90;;;;;;;;;;5043911;28;20468;-68
2022/11/02 11:08:48;;;;;;;2.55;1.25;;;14.90;96.90;;;;;;5059416;28;20078;-69
2022/11/02 11:11:22;;;;;;;3.05;2.03;;;;;;;;;;5053236;28;20040;-68
2022/11/02 11:13:54;;;;;;;2.35;1.40;;;;;;;;;;5055147;28;20411;-68
2022/11/02 11:16:29;;;;;;;1.20;1.10;;;;;;;;;;5061055;28;20070;-67
2022/11/02 11:18:55;;;;;;;1.40;1.30;;;14.70;99.90;;;;;;5054653;28;20086;-67
2022/11/02 11:21:21;;;;;;;6.87;1.80;;;;;;;;;;5065470;28;20032;-69
2022/11/02 11:23:47;;;;;;;1.45;1.35;;;;;;;;;;5076024;28;20077;-67
2022/11/02 11:26:33;;;;;;;0.40;0.40;;;;;;;;;;5058934;28;20028;-68
2022/11/02 11:28:59;;;;;;;0.57;0.57;;;;;;;;;;5058850;28;20037;-68
2022/11/02 11:31:25;;;;;;;1.40;1.30;;;;;;;;;;5047417;28;20711;-67
2022/11/02 11:33:54;;;;;;;1.75;1.65;;;14.90;96.40;;;;;;5062452;28;20367;-68
2022/11/02 11:36:30;;;;;;;2.30;2.15;;;14.90;97.30;;;;;;5054432;28;20527;-67
2022/11/02 11:39:02;;;;;;;2.67;2.10;;;14.80;96.90;;;;;;5059675;28;20028;-68
2022/11/02 11:41:30;;;;;;;1.88;1.77;;;14.70;96.90;;;;;;5060648;28;20021;-68
2022/11/02 11:43:56;;;;;;;2.20;2.03;;;14.60;97.10;;;;;;5062240;28;20036;-68
2022/11/02 11:46:22;;;;;;;1.90;1.80;;;;;;;;;;5058283;28;20516;-68
2022/11/02 11:48:51;;;;;;;2.00;1.90;;;;;;;;;;5048987;28;20205;-66
2022/11/02 11:51:25;;;;;;;1.85;1.75;;;;;;;;;;5061887;28;20451;-67
2022/11/02 11:54:12;;;;;;;2.33;2.10;;;13.90;98.70;;;;;;5067085;28;20025;-67
2022/11/02 11:56:38;;;;;;;1.60;1.52;;;;;;;;;;5041589;28;20029;-67
2022/11/02 11:59:04;;;;;;;1.47;1.37;;;;;;;;;;5056491;28;20036;-66
2022/11/02 12:01:39;;;;;;;0.50;0.50;;;13.80;99.10;;;;;;5054495;28;20047;-68
2022/11/02 12:04:05;;;;;;;3.28;1.83;;;;;;;;;;5062773;28;20358;-67
2022/11/02 12:06:45;;;;;;;5.33;2.20;;;13.50;99.50;;;;;;5059968;28;20036;-68
2022/11/02 12:09:18;;;;;;;1.58;1.48;;;;;;;;;;5057779;28;20037;-68
2022/11/02 12:11:56;;;;;;;1.33;1.25;;;13.30;99.90;;;;;;5057786;28;20028;-67
2022/11/02 12:14:53;;;;;;;1.00;1.00;;;13.20;99.90;;;;;;5054380;28;20021;-68
2022/11/02 12:18:03;;;;;;;1.52;1.30;;;13.20;99.90;;;;;;5056935;28;20036;-67
2022/11/02 12:20:44;;;;;;;1.65;1.55;;;13.30;99.90;;;;;;5055184;28;20037;-68
2022/11/02 12:23:13;;;;;;;1.27;1.17;;;;;;;;;;5062536;28;20051;-67
2022/11/02 12:25:51;;;;;;;2.90;2.67;;;13.30;99.90;;;;;;5061946;28;20034;-67
2022/11/02 12:28:47;;;;;;;4.50;4.18;;;13.20;99.90;;;;;;5056343;28;20134;-68
2022/11/02 12:31:35;;;;;;;1.42;1.33;;;13.30;99.90;;;;;;5056150;28;20032;-68
2022/11/02 12:34:16;;;;;;;4.32;1.65;;;13.20;99.90;;;;;;5041572;28;20024;-68
2022/11/02 12:36:42;;;;;;;2.58;2.38;;;;;;;;;;5051298;28;20033;-68
2022/11/02 12:39:12;;;;;;;2.27;1.97;;;;;;;;;;5064098;28;20033;-68
2022/11/02 12:41:38;;;;;;;2.42;2.33;;;;;;;;;;5039135;28;20040;-67
2022/11/02 12:44:36;;;;;;;1.83;1.27;;;13.20;99.90;;;;;;5042428;28;20037;-67
2022/11/02 12:47:24;;;;;;;0.80;0.80;;;13.10;99.90;;;;;;5060121;28;20079;-67
2022/11/02 12:50:27;;;;;;;3.42;1.98;;;13.00;99.90;;;;;;5044086;28;20032;-68
2022/11/02 12:53:02;;;;;;;0.88;0.88;;;;;;;;;;5040190;28;20020;-68
2022/11/02 12:55:31;;;;;;;0.63;0.63;;;;;;;;;;5064911;28;20119;-67
2022/11/02 12:58:00;;;;;;;1.52;1.45;;;;;;;;;;5059788;28;20087;-68
2022/11/02 13:00:28;;;;;;;1.67;1.30;;;13.10;99.90;;;;;;5045700;28;20048;-67
2022/11/02 13:03:17;;;;;;;1.42;1.33;;;13.20;99.90;;;;;;5056397;28;20031;-68
2022/11/02 13:05:50;;;;;;;1.05;1.05;;;;;;;;;;5056367;28;20072;-67
2022/11/02 13:08:31;;;;;;;1.85;1.73;;;13.10;99.90;;;;;;5054506;28;20120;-69
2022/11/02 13:10:59;;;;;;;3.42;2.08;;;;;;;;;;5066021;28;20024;-66
2022/11/02 13:13:46;;;;;;;5.32;1.80;;;;;;;;;;5056435;28;20033;-68
2022/11/02 13:16:15;;;;;;;1.10;1.10;;;13.00;99.90;;;;;;5058395;28;20548;-68
2022/11/02 13:18:52;;;;;;;1.75;1.38;;;12.80;99.90;;;;;;5062432;28;20040;-69
2022/11/02 13:21:29;;;;;;;1.90;1.80;;;;;;;;;;5057967;28;20112;-69
2022/11/02 13:23:57;;;;;;;0.60;0.60;;;;;;;;;;5065089;28;20028;-68
2022/11/02 13:26:36;;;;;;;8.18;4.78;;;;;;;;;;5056065;28;20074;-68
2022/11/02 13:29:06;;;;;;;2.03;1.90;;;;;;;;;;5051446;28;20491;-67
2022/11/02 13:31:34;;;;;;;6.40;1.42;;;;;;;;;;5057655;28;20085;-68
2022/11/02 13:34:05;;;;;;;0.88;0.85;;;12.80;99.90;;;;;;5066928;28;20444;-67
2022/11/02 13:36:31;;;;;;;2.33;2.17;;;;;;;;;;5054462;28;20036;-68
2022/11/02 13:39:07;;;;;;;1.23;1.23;;;12.80;99.90;;;;;;5062872;28;20075;-67
2022/11/02 13:41:53;;;;;;;1.42;1.33;;;12.80;99.90;;;;;;5056167;28;21843;-68
2022/11/02 13:44:38;;;;;;;1.83;1.73;;;;;;;;;;5054638;28;20040;-67
2022/11/02 13:47:51;;;;;;;2.15;1.98;;;12.70;99.90;;;;;;5062584;28;20035;-66
2022/11/02 13:50:21;;;;;;;1.83;1.73;;;12.70;99.90;;;;;;5002381;28;20045;-64
2022/11/02 13:52:57;;;;;;;1.50;1.40;;;12.70;99.90;;;;;;4984605;28;20045;-65
2022/11/02 13:55:27;;;;;;;1.83;1.27;;;12.60;99.90;;;;;;5028284;28;20044;-63
2022/11/02 13:57:56;;;;;;;1.52;1.42;;;;;;;;;;5044378;28;20386;-64
2022/11/02 14:00:21;;;;;;;8.20;1.42;;;;;;;;;;5075236;28;20107;-62
2022/11/02 14:02:49;;;;;;;3.58;1.55;;;;;;;;;;5063752;28;20104;-64
2022/11/02 14:05:15;;;;;;;;;;;;;;;;;;5069661;28;20020;-61
2022/11/02 14:07:41;;;;;;;2.80;2.60;;;;;;;;;;5068904;28;20314;-63
2022/11/02 14:10:09;;;;;;;1.83;1.73;;;;;;;;;;5075655;28;20051;-64
2022/11/02 14:12:48;;;;;;;1.20;1.10;;;;;;;;;;5064674;28;20087;-63
2022/11/02 14:15:14;;;;;;;0.60;0.60;;;;;;;;;;5072827;28;20024;-64
2022/11/02 14:17:52;;;;;;;1.27;1.17;;;;;;;;;;5055107;28;20081;-64
2022/11/02 14:20:38;;;;;;;1.13;1.10;;;;;;;;;;5059838;28;20498;-64
2022/11/02 14:23:10;;;;;;;4.20;1.38;;;12.30;99.90;;;;;;5040056;28;20052;-65
2022/11/02 14:25:45;;;;;;;1.40;1.30;;;;;;;;;;5068665;28;20029;-64
2022/11/02 14:28:20;;;;;;;1.60;1.35;;;12.20;99.90;;;;;;5061956;28;20080;-64
2022/11/02 14:30:47;;;;;;;1.80;1.63;;;;;;;;;;5062946;28;20055;-63
2022/11/02 14:33:27;;;;;;;1.35;1.30;;;;;;;;;;5065908;28;20081;-64
2022/11/02 14:35:59;;;;;;;3.83;1.48;;;;;;;;;;5065557;28;20032;-65
2022/11/02 14:38:31;;;;;;;2.53;2.33;;;;;;;;;;5077804;28;20085;-65
2022/11/02 14:41:23;;;;;;;0.63;0.60;;;;;;;;;;5070981;28;20029;-68
2022/11/02 14:44:24;;;;;;;0.85;0.85;;;;;;;;;;5059257;28;20048;-66
2022/11/02 14:47:00;;;;;;;2.05;1.90;;;;;;;;;;4999296;28;20036;-66
2022/11/02 14:49:28;;;;;;;1.45;1.35;;;;;;;;;;5060614;28;20396;-66